Time;durP1;ratioP1;P1;durP2;ratioP2;P2;SDS_P1;SDS_P2;PMS_P1;PMS_P2;Temp;Humidity;BMP_temperature;BMP_pressure;BME280_temperature;BME280_humidity;BME280_pressure;Samples;Min_cycle;Max_cycle;Signal;HPM_P1;HPM_P2
2023/02/09 00:01:05;;;;;;;37.72;23.92;;;0.30;99.90;;;;;;5074640;28;20060;-54
2023/02/09 00:03:32;;;;;;;34.67;23.45;;;0.30;99.90;;;;;;5074528;28;20066;-57
2023/02/09 00:05:59;;;;;;;34.88;24.73;;;0.30;99.90;;;;;;5075698;28;20422;-55
2023/02/09 00:08:26;;;;;;;37.47;25.88;;;0.30;99.90;;;;;;5075446;28;20056;-51
2023/02/09 00:10:52;;;;;;;38.03;27.10;;;0.30;99.90;;;;;;5076017;28;20397;-55
2023/02/09 00:13:22;;;;;;;38.83;24.77;;;0.30;99.90;;;;;;5076053;28;20091;-53
2023/02/09 00:15:49;;;;;;;40.83;24.95;;;0.30;99.90;;;;;;5075375;28;20048;-55
2023/02/09 00:18:16;;;;;;;39.42;25.45;;;0.30;99.90;;;;;;5075451;28;20357;-55
2023/02/09 00:20:42;;;;;;;36.75;25.05;;;0.30;99.90;;;;;;5075710;28;20107;-54
2023/02/09 00:23:09;;;;;;;35.45;23.88;;;0.30;99.90;;;;;;5075455;28;20036;-51
2023/02/09 00:25:36;;;;;;;34.95;23.63;;;0.30;99.90;;;;;;5075583;28;20094;-55
2023/02/09 00:28:03;;;;;;;40.25;26.58;;;0.30;99.90;;;;;;5075543;28;20049;-54
2023/02/09 00:30:30;;;;;;;40.92;26.30;;;0.30;99.90;;;;;;5075772;28;20064;-54
2023/02/09 00:32:56;;;;;;;41.92;25.40;;;0.30;99.90;;;;;;5075243;28;20037;-57
2023/02/09 00:35:24;;;;;;;36.97;26.52;;;0.30;99.90;;;;;;5074977;28;20080;-56
2023/02/09 00:37:52;;;;;;;36.88;26.23;;;0.30;99.90;;;;;;5073888;28;20132;-54
2023/02/09 00:40:19;;;;;;;36.45;24.33;;;0.30;99.90;;;;;;5075399;28;20064;-53
2023/02/09 00:42:46;;;;;;;37.80;25.90;;;0.30;99.90;;;;;;5073982;28;20048;-56
2023/02/09 00:45:12;;;;;;;34.22;23.70;;;0.30;99.90;;;;;;5074585;28;20422;-55
2023/02/09 00:47:40;;;;;;;38.53;25.73;;;0.30;99.90;;;;;;5073695;28;20052;-53
2023/02/09 00:50:07;;;;;;;39.08;24.67;;;0.30;99.90;;;;;;5074991;28;20051;-54
2023/02/09 00:52:34;;;;;;;35.17;23.80;;;0.30;99.90;;;;;;5073783;28;20487;-53
2023/02/09 00:55:00;;;;;;;36.35;23.58;;;0.30;99.90;;;;;;5073906;28;20438;-53
2023/02/09 00:57:27;;;;;;;36.17;23.88;;;0.30;99.90;;;;;;5074373;28;20071;-55
2023/02/09 00:59:55;;;;;;;39.05;25.45;;;0.20;99.90;;;;;;5073896;28;20072;-54
2023/02/09 01:02:21;;;;;;;40.47;25.52;;;0.20;99.90;;;;;;5074449;28;20051;-54
2023/02/09 01:04:48;;;;;;;37.50;24.63;;;0.20;99.90;;;;;;5056875;28;20499;-50
2023/02/09 01:07:15;;;;;;;38.55;24.70;;;0.20;99.90;;;;;;5074237;28;20044;-55
2023/02/09 01:09:42;;;;;;;37.47;25.38;;;0.20;99.90;;;;;;5073360;28;20109;-52
2023/02/09 01:12:08;;;;;;;40.95;25.73;;;0.20;99.90;;;;;;5074279;28;20101;-56
2023/02/09 01:14:36;;;;;;;36.30;26.23;;;0.20;99.90;;;;;;5056626;28;20094;-56
2023/02/09 01:17:03;;;;;;;37.25;25.60;;;0.20;99.90;;;;;;5074501;28;20356;-56
2023/02/09 01:19:30;;;;;;;36.70;25.30;;;0.20;99.90;;;;;;5074705;28;20383;-54
2023/02/09 01:21:57;;;;;;;35.25;25.55;;;0.20;99.90;;;;;;5073326;28;20040;-54
2023/02/09 01:24:23;;;;;;;34.70;25.48;;;0.30;99.90;;;;;;5073403;28;20032;-54
2023/02/09 01:26:50;;;;;;;34.20;24.38;;;0.20;99.90;;;;;;5072659;28;20058;-53
2023/02/09 01:29:17;;;;;;;36.92;25.98;;;0.20;99.90;;;;;;5072871;28;20076;-51
2023/02/09 01:31:44;;;;;;;39.50;24.52;;;0.20;99.90;;;;;;5074230;28;20434;-55
2023/02/09 01:34:11;;;;;;;36.65;25.80;;;0.20;99.90;;;;;;5074304;28;20051;-54
2023/02/09 01:36:37;;;;;;;38.38;24.77;;;0.20;99.90;;;;;;5072895;28;20052;-53
2023/02/09 01:39:04;;;;;;;36.78;26.58;;;0.20;99.90;;;;;;5074550;28;20045;-54
2023/02/09 01:41:33;;;;;;;36.55;25.35;;;0.20;99.90;;;;;;5073722;28;20426;-54
2023/02/09 01:44:00;;;;;;;34.72;24.50;;;0.10;99.90;;;;;;5074269;28;20406;-53
2023/02/09 01:46:26;;;;;;;36.78;25.65;;;0.10;99.90;;;;;;5073921;28;20075;-52
2023/02/09 01:48:53;;;;;;;35.22;25.10;;;0.10;99.90;;;;;;5073622;28;20056;-51
2023/02/09 01:51:20;;;;;;;35.42;23.88;;;0.10;99.90;;;;;;5073898;28;20529;-50
2023/02/09 01:53:47;;;;;;;38.38;24.33;;;0.10;99.90;;;;;;5074027;28;20072;-53
2023/02/09 01:56:13;;;;;;;34.35;24.63;;;0.10;99.90;;;;;;5071937;28;20101;-51
2023/02/09 01:58:40;;;;;;;35.20;24.40;;;0.10;99.90;;;;;;5072291;28;20040;-54
2023/02/09 02:01:07;;;;;;;35.70;24.88;;;0.10;99.90;;;;;;5073914;28;20048;-51
2023/02/09 02:03:33;;;;;;;33.47;24.65;;;0.10;99.90;;;;;;5073408;28;20119;-53
2023/02/09 02:06:00;;;;;;;36.90;25.02;;;0.10;99.90;;;;;;5072104;28;20056;-54
2023/02/09 02:08:27;;;;;;;35.55;25.80;;;0.10;99.90;;;;;;5072210;28;20052;-54
2023/02/09 02:10:54;;;;;;;33.47;24.10;;;0.10;99.90;;;;;;5074011;28;20072;-52
2023/02/09 02:13:21;;;;;;;34.75;24.70;;;0.00;99.90;;;;;;5072123;28;20143;-51
2023/02/09 02:15:48;;;;;;;33.42;23.83;;;0.00;99.90;;;;;;5072538;28;20048;-53
2023/02/09 02:18:18;;;;;;;33.75;24.02;;;0.00;99.90;;;;;;5072529;28;20094;-53
2023/02/09 02:20:45;;;;;;;36.08;25.48;;;0.10;99.90;;;;;;5073929;28;20040;-51
2023/02/09 02:23:12;;;;;;;37.53;25.83;;;0.10;99.90;;;;;;5073357;28;20037;-51
2023/02/09 02:25:39;;;;;;;40.25;25.05;;;0.10;99.90;;;;;;5072258;28;20070;-51
2023/02/09 02:28:05;;;;;;;37.53;25.52;;;0.10;99.90;;;;;;5071746;28;20048;-49
2023/02/09 02:30:32;;;;;;;37.60;25.20;;;0.10;99.90;;;;;;5073675;28;20110;-53
2023/02/09 02:32:59;;;;;;;40.08;26.95;;;0.10;99.90;;;;;;5073775;28;20041;-50
2023/02/09 02:35:26;;;;;;;35.65;25.52;;;0.10;99.90;;;;;;5073424;28;20060;-50
2023/02/09 02:37:53;;;;;;;35.92;25.10;;;0.10;99.90;;;;;;5071736;28;20036;-50
2023/02/09 02:40:19;;;;;;;35.90;25.23;;;0.10;99.90;;;;;;5073162;28;20496;-50
2023/02/09 02:42:50;;;;;;;36.85;25.60;;;0.10;99.90;;;;;;5072160;28;20040;-54
2023/02/09 02:45:17;;;;;;;38.15;26.33;;;0.10;99.90;;;;;;5073027;28;20043;-49
2023/02/09 02:47:44;;;;;;;32.35;24.45;;;0.10;99.90;;;;;;5072911;28;20408;-55
2023/02/09 02:50:11;;;;;;;40.20;25.25;;;0.20;99.90;;;;;;5073145;28;20098;-56
2023/02/09 02:52:37;;;;;;;39.22;24.67;;;0.20;99.90;;;;;;5073437;28;20040;-55
2023/02/09 02:55:04;;;;;;;34.90;25.13;;;0.20;99.90;;;;;;5073555;28;20417;-55
2023/02/09 02:57:31;;;;;;;32.17;24.25;;;0.20;99.90;;;;;;5073218;28;20090;-53
2023/02/09 02:59:58;;;;;;;38.22;25.77;;;0.20;99.90;;;;;;5072369;28;20094;-53
2023/02/09 03:02:24;;;;;;;32.17;24.13;;;0.20;99.90;;;;;;5073326;28;20036;-54
2023/02/09 03:04:54;;;;;;;41.08;26.67;;;0.20;99.90;;;;;;5073192;28;20479;-52
2023/02/09 03:07:21;;;;;;;33.63;23.92;;;0.20;99.90;;;;;;5073741;28;20044;-55
2023/02/09 03:09:48;;;;;;;34.72;24.83;;;0.20;99.90;;;;;;5077068;28;20056;-57
2023/02/09 03:12:14;;;;;;;36.85;24.67;;;0.20;99.90;;;;;;5077079;28;20426;-56
2023/02/09 03:14:41;;;;;;;37.15;26.90;;;0.20;99.90;;;;;;5077099;28;20040;-54
2023/02/09 03:17:08;;;;;;;33.75;24.48;;;0.20;99.90;;;;;;5076375;28;20079;-56
2023/02/09 03:19:35;;;;;;;36.33;25.42;;;0.20;99.90;;;;;;5076848;28;20047;-56
2023/02/09 03:22:02;;;;;;;34.63;24.60;;;0.20;99.90;;;;;;5076913;28;20464;-53
2023/02/09 03:24:29;;;;;;;34.28;24.02;;;0.20;99.90;;;;;;5076575;28;20115;-53
2023/02/09 03:26:55;;;;;;;35.25;24.77;;;0.20;99.90;;;;;;5076800;28;20094;-55
2023/02/09 03:29:22;;;;;;;36.53;24.30;;;0.30;99.90;;;;;;5076100;28;20036;-54
2023/02/09 03:31:49;;;;;;;36.70;25.50;;;0.30;99.90;;;;;;5076350;28;20048;-53
2023/02/09 03:34:16;;;;;;;36.78;24.85;;;0.30;99.90;;;;;;5076801;28;20040;-54
2023/02/09 03:36:42;;;;;;;36.60;25.45;;;0.30;99.90;;;;;;5076522;28;20037;-53
2023/02/09 03:39:09;;;;;;;35.40;24.77;;;0.30;99.90;;;;;;5076472;28;20498;-51
2023/02/09 03:41:37;;;;;;;33.75;25.10;;;0.30;99.90;;;;;;5076210;28;20040;-55
2023/02/09 03:46:49;;;;;;;37.92;26.42;;;0.30;99.90;;;;;;5076005;28;20110;-54
2023/02/09 03:49:16;;;;;;;35.30;24.90;;;0.40;99.90;;;;;;5076523;28;20102;-51
2023/02/09 03:51:42;;;;;;;36.10;25.52;;;0.40;99.90;;;;;;5076511;28;20033;-50
2023/02/09 03:54:09;;;;;;;39.85;26.80;;;0.40;99.90;;;;;;5076235;28;20111;-52
2023/02/09 03:56:36;;;;;;;33.17;25.20;;;0.40;99.90;;;;;;5075601;28;20127;-57
2023/02/09 03:59:03;;;;;;;39.65;26.13;;;0.40;99.90;;;;;;5075715;28;20046;-56
2023/02/09 04:01:32;;;;;;;36.75;26.30;;;0.50;99.90;;;;;;5075822;28;20474;-54
2023/02/09 04:03:59;;;;;;;37.45;25.63;;;0.50;99.90;;;;;;5076075;28;20044;-57
2023/02/09 04:06:25;;;;;;;35.65;25.70;;;0.50;99.90;;;;;;5075784;28;20044;-52
2023/02/09 04:08:52;;;;;;;39.67;26.02;;;0.50;99.90;;;;;;5075356;28;20074;-54
2023/02/09 04:11:19;;;;;;;36.53;24.63;;;0.50;99.90;;;;;;5075868;28;20562;-53
2023/02/09 04:13:48;;;;;;;32.15;24.00;;;0.50;99.90;;;;;;5076001;28;20488;-54
2023/02/09 04:16:16;;;;;;;33.17;23.42;;;0.50;99.90;;;;;;5075259;28;20049;-53
2023/02/09 04:18:43;;;;;;;33.92;24.17;;;0.50;99.90;;;;;;5074806;28;20044;-54
2023/02/09 04:21:10;;;;;;;34.72;24.33;;;0.50;99.90;;;;;;5075390;28;20067;-55
2023/02/09 04:23:37;;;;;;;34.10;24.25;;;0.50;99.90;;;;;;5075425;28;20098;-52
2023/02/09 04:26:03;;;;;;;34.38;24.00;;;0.40;99.90;;;;;;5075484;28;20037;-55
2023/02/09 04:28:30;;;;;;;33.40;24.70;;;0.40;99.90;;;;;;5075452;28;20044;-54
2023/02/09 04:30:57;;;;;;;34.70;23.73;;;0.40;99.90;;;;;;5075606;28;20045;-53
2023/02/09 04:33:24;;;;;;;37.40;25.50;;;0.40;99.90;;;;;;5075374;28;20090;-55
2023/02/09 04:35:50;;;;;;;33.85;24.23;;;0.40;99.90;;;;;;5075370;28;20040;-57
2023/02/09 04:38:18;;;;;;;35.28;23.98;;;0.40;99.90;;;;;;5075073;28;20048;-54
2023/02/09 04:40:45;;;;;;;35.47;24.63;;;0.40;99.90;;;;;;5074960;28;20047;-56
2023/02/09 04:43:12;;;;;;;37.55;25.00;;;0.40;99.90;;;;;;5075081;28;20116;-56
2023/02/09 04:45:38;;;;;;;36.08;24.48;;;0.40;99.90;;;;;;5057434;28;20045;-56
2023/02/09 04:48:05;;;;;;;38.00;24.58;;;0.40;99.90;;;;;;5075200;28;20509;-54
2023/02/09 04:50:32;;;;;;;30.77;23.15;;;0.40;99.90;;;;;;5075059;28;20124;-54
2023/02/09 04:52:59;;;;;;;33.22;24.90;;;0.40;99.90;;;;;;5074976;28;20090;-55
2023/02/09 04:55:25;;;;;;;35.70;24.25;;;0.40;99.90;;;;;;5074836;28;20047;-52
2023/02/09 05:00:37;;;;;;;33.53;22.80;;;0.40;99.90;;;;;;5074836;28;20106;-55
2023/02/09 05:03:04;;;;;;;31.52;21.77;;;0.60;99.90;;;;;;5071463;28;20349;-54
2023/02/09 05:05:31;;;;;;;28.05;20.52;;;0.70;99.90;;;;;;5054555;28;20059;-57
2023/02/09 05:07:58;;;;;;;27.80;18.23;;;0.90;99.90;;;;;;5054211;28;20045;-55
2023/02/09 05:10:24;;;;;;;28.02;18.50;;;1.00;99.90;;;;;;5054731;28;20045;-55
2023/02/09 05:12:51;;;;;;;26.33;18.45;;;1.10;99.90;;;;;;5054933;28;20068;-53
2023/02/09 05:15:18;;;;;;;27.80;18.08;;;1.30;99.90;;;;;;5054671;28;20152;-53
2023/02/09 05:17:45;;;;;;;30.08;18.80;;;1.30;99.90;;;;;;5054010;28;20095;-51
2023/02/09 05:20:11;;;;;;;27.30;19.23;;;1.40;99.90;;;;;;5054089;28;20079;-52
2023/02/09 05:22:38;;;;;;;24.73;18.00;;;1.40;99.90;;;;;;5054691;28;20091;-53
2023/02/09 05:25:05;;;;;;;25.05;18.00;;;1.40;99.90;;;;;;5054710;28;20087;-52
2023/02/09 05:27:32;;;;;;;28.15;19.30;;;1.40;99.90;;;;;;5054261;28;20040;-55
2023/02/09 05:29:58;;;;;;;26.60;17.88;;;1.40;99.90;;;;;;5053222;28;20071;-52
2023/02/09 05:32:25;;;;;;;24.60;18.20;;;1.40;99.90;;;;;;5054427;28;20408;-56
2023/02/09 05:34:52;;;;;;;29.00;18.23;;;1.40;99.90;;;;;;5053790;28;20041;-54
2023/02/09 05:37:19;;;;;;;26.27;18.95;;;1.40;99.90;;;;;;5053781;28;20048;-54
2023/02/09 05:39:45;;;;;;;26.55;18.45;;;1.40;99.90;;;;;;5054049;28;20349;-54
2023/02/09 05:42:15;;;;;;;23.08;17.35;;;1.40;99.90;;;;;;5054354;28;20045;-53
2023/02/09 05:44:42;;;;;;;25.98;16.92;;;1.40;99.90;;;;;;5053556;28;20546;-51
2023/02/09 05:47:08;;;;;;;22.38;16.08;;;1.40;99.90;;;;;;5053488;28;20468;-53
2023/02/09 05:49:35;;;;;;;22.02;16.38;;;1.50;99.90;;;;;;5053865;28;20144;-53
2023/02/09 05:52:05;;;;;;;21.45;15.63;;;1.50;99.90;;;;;;5054128;28;20044;-50
2023/02/09 05:54:32;;;;;;;22.52;15.85;;;1.60;99.90;;;;;;5053735;28;20102;-53
2023/02/09 05:56:58;;;;;;;22.23;15.18;;;1.60;99.90;;;;;;5053765;28;20554;-51
2023/02/09 05:59:25;;;;;;;20.83;15.23;;;1.60;99.90;;;;;;5053561;28;20047;-57
2023/02/09 06:01:52;;;;;;;21.17;14.43;;;1.60;99.90;;;;;;5053771;28;20045;-56
2023/02/09 06:04:19;;;;;;;20.88;14.48;;;1.60;99.90;;;;;;5053610;28;20120;-54
2023/02/09 06:06:45;;;;;;;23.90;15.60;;;1.60;99.90;;;;;;5052604;28;20080;-57
2023/02/09 06:09:12;;;;;;;19.05;14.35;;;1.70;99.90;;;;;;5053393;28;20475;-54
2023/02/09 06:11:39;;;;;;;23.02;14.82;;;1.60;99.90;;;;;;5053432;28;20098;-53
2023/02/09 06:14:05;;;;;;;22.55;15.50;;;1.60;99.90;;;;;;5053868;28;20076;-52
2023/02/09 06:16:32;;;;;;;21.70;15.07;;;1.60;99.90;;;;;;5053263;28;20115;-54
2023/02/09 06:18:59;;;;;;;22.80;16.27;;;1.70;99.90;;;;;;5053299;28;20095;-52
2023/02/09 06:21:26;;;;;;;20.20;14.82;;;1.70;99.90;;;;;;5053600;28;20041;-56
2023/02/09 06:23:52;;;;;;;24.95;16.38;;;1.70;99.90;;;;;;5053662;28;20044;-51
2023/02/09 06:26:19;;;;;;;22.52;16.17;;;1.70;99.90;;;;;;5053513;28;20049;-51
2023/02/09 06:28:46;;;;;;;25.35;18.23;;;1.80;99.90;;;;;;5053649;28;20119;-54
2023/02/09 06:31:13;;;;;;;26.88;17.33;;;1.70;99.90;;;;;;5053423;28;20124;-55
2023/02/09 06:33:40;;;;;;;24.67;17.17;;;1.80;99.90;;;;;;5053292;28;20548;-53
2023/02/09 06:36:06;;;;;;;28.58;18.25;;;1.80;99.90;;;;;;5053657;28;20523;-54
2023/02/09 06:38:33;;;;;;;25.40;17.58;;;1.80;99.90;;;;;;5053420;28;20041;-56
2023/02/09 06:41:00;;;;;;;25.15;18.40;;;1.80;99.90;;;;;;5052431;28;20423;-54
2023/02/09 06:43:26;;;;;;;24.77;17.30;;;1.90;99.90;;;;;;5057183;28;20087;-56
2023/02/09 06:45:53;;;;;;;25.55;17.48;;;1.90;99.90;;;;;;5057123;28;20087;-54
2023/02/09 06:48:20;;;;;;;23.65;17.08;;;2.00;99.90;;;;;;5057173;28;20141;-51
2023/02/09 06:50:47;;;;;;;24.52;18.00;;;2.00;99.90;;;;;;5056207;28;20052;-50
2023/02/09 06:53:15;;;;;;;23.30;16.23;;;2.10;99.90;;;;;;5056929;28;20049;-52
2023/02/09 06:55:41;;;;;;;23.30;15.80;;;2.10;99.90;;;;;;5056899;28;20553;-52
2023/02/09 06:58:08;;;;;;;21.48;14.80;;;2.20;99.90;;;;;;5056953;28;20057;-53
2023/02/09 07:00:35;;;;;;;23.60;15.07;;;2.20;99.90;;;;;;5056992;28;20128;-51
2023/02/09 07:03:02;;;;;;;22.35;15.80;;;2.20;99.90;;;;;;5056907;28;20048;-48
2023/02/09 07:05:30;;;;;;;22.55;15.30;;;2.30;99.90;;;;;;5055627;28;20045;-47
2023/02/09 07:07:57;;;;;;;21.23;12.73;;;2.30;99.90;;;;;;5056234;28;20048;-53
2023/02/09 07:10:23;;;;;;;19.88;13.10;;;2.30;99.90;;;;;;5056595;28;20074;-51
2023/02/09 07:12:50;;;;;;;19.83;14.93;;;2.40;99.90;;;;;;5056487;28;20049;-57
2023/02/09 07:15:17;;;;;;;24.00;14.27;;;2.40;99.90;;;;;;5056927;28;20095;-53
2023/02/09 07:17:44;;;;;;;19.80;13.95;;;2.50;99.90;;;;;;5056303;28;20045;-51
2023/02/09 07:20:10;;;;;;;19.55;13.27;;;2.50;99.90;;;;;;5056866;28;20457;-54
2023/02/09 07:22:37;;;;;;;20.58;13.48;;;2.60;99.90;;;;;;5056843;28;20469;-56
2023/02/09 07:25:04;;;;;;;21.25;12.90;;;2.70;99.90;;;;;;5056057;28;20045;-53
2023/02/09 07:27:30;;;;;;;18.13;12.45;;;2.70;99.90;;;;;;5056449;28;20045;-56
2023/02/09 07:29:57;;;;;;;18.75;12.55;;;2.80;99.90;;;;;;5056603;28;20059;-54
2023/02/09 07:32:26;;;;;;;20.60;13.35;;;2.90;99.90;;;;;;5056347;28;20037;-52
2023/02/09 07:34:53;;;;;;;17.38;12.20;;;2.90;99.90;;;;;;5056655;28;20048;-53
2023/02/09 07:37:20;;;;;;;21.88;13.73;;;3.00;99.90;;;;;;5055699;28;20052;-54
2023/02/09 07:39:47;;;;;;;22.45;13.27;;;3.00;99.90;;;;;;5057945;28;20037;-54
2023/02/09 07:42:14;;;;;;;20.02;13.40;;;3.00;99.90;;;;;;5055961;28;20063;-54
2023/02/09 07:44:48;;;;;;;18.58;13.50;;;3.10;99.90;;;;;;5055043;28;20125;-54
2023/02/09 07:47:15;;;;;;;17.90;13.20;;;3.10;99.90;;;;;;5055875;28;20128;-53
2023/02/09 07:49:42;;;;;;;23.13;13.90;;;3.20;99.90;;;;;;5055779;28;20124;-55
2023/02/09 07:52:08;;;;;;;21.45;13.30;;;3.30;99.90;;;;;;5055616;28;20049;-54
2023/02/09 07:54:37;;;;;;;198.80;22.38;;;3.30;99.90;;;;;;5055355;28;20041;-49
2023/02/09 07:57:04;;;;;;;23.25;14.73;;;3.30;99.90;;;;;;5055939;28;20045;-53
2023/02/09 07:59:31;;;;;;;21.73;13.27;;;3.40;99.90;;;;;;5055256;28;20502;-55
2023/02/09 08:01:58;;;;;;;29.20;13.52;;;3.40;99.90;;;;;;5055878;28;20040;-55
2023/02/09 08:04:24;;;;;;;30.20;13.65;;;3.40;99.90;;;;;;5055312;28;20072;-56
2023/02/09 08:06:52;;;;;;;23.08;13.07;;;3.50;99.90;;;;;;5055319;28;20052;-55
2023/02/09 08:09:18;;;;;;;30.90;14.32;;;3.50;99.90;;;;;;5054322;28;20080;-55
2023/02/09 08:11:45;;;;;;;17.67;12.90;;;3.60;99.90;;;;;;5054526;28;20049;-56
2023/02/09 08:14:12;;;;;;;20.73;13.45;;;3.60;99.90;;;;;;5055875;28;20122;-55
2023/02/09 08:16:39;;;;;;;21.20;12.20;;;3.60;99.90;;;;;;5055054;28;20037;-52
2023/02/09 08:19:05;;;;;;;18.98;12.80;;;3.70;99.90;;;;;;5055078;28;20484;-57
2023/02/09 08:21:32;;;;;;;20.77;12.93;;;3.70;99.90;;;;;;5055040;28;20114;-52
2023/02/09 08:23:59;;;;;;;21.30;13.13;;;3.70;99.90;;;;;;5055078;28;20094;-51
2023/02/09 08:26:26;;;;;;;23.48;12.93;;;3.80;99.90;;;;;;5055140;28;20041;-52
2023/02/09 08:28:52;;;;;;;19.67;13.65;;;3.70;99.90;;;;;;5054064;28;20049;-54
2023/02/09 08:31:20;;;;;;;20.20;13.52;;;3.80;99.90;;;;;;5055247;28;20037;-54
2023/02/09 08:33:47;;;;;;;25.65;14.40;;;3.80;99.90;;;;;;5055130;28;20075;-54
2023/02/09 08:36:14;;;;;;;38.45;25.80;;;3.80;99.90;;;;;;5053309;28;20048;-54
2023/02/09 08:38:40;;;;;;;22.60;15.77;;;3.80;99.90;;;;;;5054504;28;20108;-56
2023/02/09 08:41:07;;;;;;;21.50;13.60;;;3.80;99.90;;;;;;5054664;28;20125;-53
2023/02/09 08:43:34;;;;;;;22.98;14.02;;;3.90;99.90;;;;;;5055041;28;20052;-52
2023/02/09 08:46:01;;;;;;;25.02;14.10;;;3.90;99.90;;;;;;5055205;28;20098;-53
2023/02/09 08:48:28;;;;;;;20.65;14.15;;;4.00;99.90;;;;;;5054924;28;20095;-55
2023/02/09 08:50:54;;;;;;;47.85;16.55;;;4.00;99.90;;;;;;5052611;28;20049;-53
2023/02/09 08:53:21;;;;;;;27.80;15.68;;;4.00;99.90;;;;;;5053286;28;20045;-55
2023/02/09 08:55:48;;;;;;;27.92;18.83;;;4.10;99.90;;;;;;5053363;28;20087;-55
2023/02/09 08:58:15;;;;;;;22.45;14.98;;;4.10;99.90;;;;;;5053156;28;20068;-52
2023/02/09 09:00:41;;;;;;;20.75;14.23;;;4.10;99.90;;;;;;5053208;28;20037;-51
2023/02/09 09:03:08;;;;;;;24.00;14.55;;;4.20;99.90;;;;;;5053659;28;20360;-51
2023/02/09 09:05:35;;;;;;;22.90;14.75;;;4.20;99.90;;;;;;5053406;28;20045;-51
2023/02/09 09:08:02;;;;;;;23.80;15.23;;;4.20;99.90;;;;;;5054270;28;20102;-55
2023/02/09 09:10:29;;;;;;;23.17;14.35;;;4.30;99.90;;;;;;5054392;28;20049;-48
2023/02/09 09:12:55;;;;;;;22.20;15.20;;;4.30;99.90;;;;;;5054656;28;20051;-54
2023/02/09 09:15:22;;;;;;;23.00;14.70;;;4.30;99.90;;;;;;5053260;28;20518;-53
2023/02/09 09:17:49;;;;;;;29.58;15.55;;;4.40;99.90;;;;;;5054032;28;20464;-53
2023/02/09 09:20:16;;;;;;;21.33;14.30;;;4.30;99.90;;;;;;5053991;28;20040;-54
2023/02/09 09:22:42;;;;;;;23.52;15.73;;;4.40;99.90;;;;;;5054286;28;20037;-51
2023/02/09 09:25:09;;;;;;;24.08;15.63;;;4.40;99.90;;;;;;5054532;28;20095;-52
2023/02/09 09:27:36;;;;;;;23.15;14.68;;;4.40;99.90;;;;;;5053633;28;20541;-49
2023/02/09 09:30:03;;;;;;;24.73;15.27;;;4.50;99.90;;;;;;5054280;28;20476;-54
2023/02/09 09:32:29;;;;;;;24.08;14.85;;;4.50;99.90;;;;;;5053683;28;20123;-56
2023/02/09 09:34:57;;;;;;;23.05;14.68;;;4.50;99.90;;;;;;5053926;28;20438;-53
2023/02/09 09:37:23;;;;;;;24.27;15.32;;;4.50;99.90;;;;;;5053924;28;20051;-54
2023/02/09 09:39:50;;;;;;;24.42;15.75;;;4.50;99.90;;;;;;5053840;28;20041;-54
2023/02/09 09:42:17;;;;;;;25.88;15.45;;;4.50;99.90;;;;;;5054118;28;20065;-53
2023/02/09 09:44:44;;;;;;;26.33;14.18;;;4.50;99.90;;;;;;5054098;28;20451;-53
2023/02/09 09:47:12;;;;;;;26.60;15.77;;;4.50;99.90;;;;;;5053841;28;20087;-56
2023/02/09 09:49:39;;;;;;;25.73;15.52;;;4.50;99.90;;;;;;5053643;28;20047;-54
2023/02/09 09:52:06;;;;;;;26.15;15.95;;;4.60;99.90;;;;;;5053874;28;20094;-55
2023/02/09 09:54:33;;;;;;;23.73;16.73;;;4.60;99.90;;;;;;5053703;28;20392;-53
2023/02/09 09:57:00;;;;;;;21.83;15.45;;;4.60;99.90;;;;;;5053876;28;20384;-55
2023/02/09 09:59:26;;;;;;;33.20;18.40;;;4.70;99.90;;;;;;5053147;28;20044;-55
2023/02/09 10:01:53;;;;;;;34.50;17.00;;;4.70;99.90;;;;;;5053830;28;20124;-54
2023/02/09 10:04:20;;;;;;;28.45;17.23;;;4.80;99.90;;;;;;5053285;28;20511;-54
2023/02/09 10:06:47;;;;;;;27.27;16.15;;;4.80;99.90;;;;;;5053553;28;20385;-54
2023/02/09 10:09:14;;;;;;;25.63;16.15;;;4.90;99.90;;;;;;5051956;28;20057;-55
2023/02/09 10:11:41;;;;;;;22.42;16.00;;;5.00;99.90;;;;;;5053749;28;20373;-53
2023/02/09 10:14:08;;;;;;;23.75;15.95;;;5.10;99.90;;;;;;5053587;28;20037;-56
2023/02/09 10:16:36;;;;;;;22.27;16.23;;;5.10;99.90;;;;;;5052954;28;20381;-53
2023/02/09 10:19:03;;;;;;;26.30;15.90;;;5.10;99.90;;;;;;5053317;28;20106;-55
2023/02/09 10:21:30;;;;;;;27.60;16.70;;;5.20;99.90;;;;;;5053408;28;20041;-53
2023/02/09 10:23:57;;;;;;;22.38;16.15;;;5.30;99.90;;;;;;5053756;28;20040;-53
2023/02/09 10:26:24;;;;;;;25.13;15.27;;;5.30;99.90;;;;;;5052869;28;20044;-53
2023/02/09 10:28:50;;;;;;;24.85;15.73;;;5.40;99.90;;;;;;5053068;28;20037;-54
2023/02/09 10:31:17;;;;;;;28.58;15.65;;;5.40;99.90;;;;;;5053176;28;20067;-51
2023/02/09 10:33:44;;;;;;;25.67;15.63;;;5.50;99.90;;;;;;5053369;28;20048;-54
2023/02/09 10:36:11;;;;;;;19.63;15.35;;;5.50;99.90;;;;;;5053265;28;20434;-53
2023/02/09 10:38:37;;;;;;;23.40;15.70;;;5.50;99.90;;;;;;5053476;28;20059;-53
2023/02/09 10:41:04;;;;;;;28.67;16.20;;;5.50;99.90;;;;;;5053380;28;20048;-55
2023/02/09 10:43:31;;;;;;;25.73;16.30;;;5.50;99.90;;;;;;5053309;28;20045;-50
2023/02/09 10:45:58;;;;;;;27.17;15.35;;;5.50;99.90;;;;;;5053262;28;20052;-54
2023/02/09 10:48:25;;;;;;;23.33;15.73;;;5.40;99.90;;;;;;5052870;28;20053;-53
2023/02/09 10:50:51;;;;;;;24.05;15.57;;;5.40;99.90;;;;;;5044150;28;20361;-51
2023/02/09 10:53:18;;;;;;;26.55;16.85;;;5.40;99.90;;;;;;5033310;28;20432;-55
2023/02/09 10:55:45;;;;;;;21.70;15.75;;;5.50;99.90;;;;;;5032834;28;20052;-51
2023/02/09 10:58:12;;;;;;;25.67;17.20;;;5.50;99.90;;;;;;5032794;28;20124;-52
2023/02/09 11:00:39;;;;;;;24.63;16.83;;;5.50;99.90;;;;;;5051033;28;20037;-51
2023/02/09 11:03:06;;;;;;;26.77;17.50;;;5.60;99.90;;;;;;5052551;28;20045;-53
2023/02/09 11:05:33;;;;;;;27.10;16.33;;;5.60;99.90;;;;;;5052379;28;20065;-55
2023/02/09 11:07:59;;;;;;;25.52;17.40;;;5.70;99.90;;;;;;5050864;28;20037;-52
2023/02/09 11:10:26;;;;;;;24.88;16.83;;;5.90;99.90;;;;;;5052134;28;20075;-53
2023/02/09 11:12:53;;;;;;;22.90;16.90;;;6.00;99.90;;;;;;5046518;28;20045;-55
2023/02/09 11:15:19;;;;;;;28.40;17.75;;;6.10;99.90;;;;;;5033323;28;20440;-49
2023/02/09 11:17:46;;;;;;;24.95;17.73;;;6.20;99.90;;;;;;5032779;28;20412;-51
2023/02/09 11:20:13;;;;;;;23.98;17.50;;;6.20;99.90;;;;;;5031798;28;20353;-53
2023/02/09 11:22:40;;;;;;;26.30;17.77;;;6.30;99.90;;;;;;5032806;28;20045;-56
2023/02/09 11:25:06;;;;;;;28.27;17.15;;;6.40;99.90;;;;;;5032609;28;20124;-49
2023/02/09 11:27:34;;;;;;;26.45;17.70;;;6.50;99.90;;;;;;5048217;28;20484;-55
2023/02/09 11:30:01;;;;;;;24.05;18.10;;;6.60;99.90;;;;;;5047051;28;20419;-52
2023/02/09 11:32:28;;;;;;;24.70;16.92;;;6.60;99.90;;;;;;5036392;28;20559;-56
2023/02/09 11:34:55;;;;;;;23.67;17.27;;;6.70;99.90;;;;;;5037881;28;20045;-55
2023/02/09 11:37:21;;;;;;;27.75;18.13;;;6.60;99.90;;;;;;5040806;28;20102;-50
2023/02/09 11:39:48;;;;;;;29.33;18.25;;;6.50;99.90;;;;;;5053162;28;20041;-54
2023/02/09 11:45:00;;;;;;;28.23;18.38;;;6.50;99.90;;;;;;5054616;28;20408;-51
2023/02/09 11:47:27;;;;;;;26.38;19.10;;;6.50;99.90;;;;;;5036030;28;20116;-52
2023/02/09 11:49:54;;;;;;;29.70;19.27;;;6.50;99.90;;;;;;5044583;28;20041;-49
2023/02/09 11:52:21;;;;;;;28.25;17.48;;;6.50;99.90;;;;;;5054374;28;20120;-54
2023/02/09 11:54:48;;;;;;;25.30;19.08;;;6.60;99.90;;;;;;5054062;28;20040;-55
2023/02/09 11:57:14;;;;;;;25.00;19.00;;;6.60;99.90;;;;;;5048320;28;20038;-53
2023/02/09 11:59:41;;;;;;;24.65;18.42;;;6.60;99.90;;;;;;5038490;28;20041;-55
2023/02/09 12:02:08;;;;;;;26.48;18.63;;;6.70;99.90;;;;;;5035983;28;20037;-52
2023/02/09 12:04:35;;;;;;;27.95;19.52;;;6.70;99.90;;;;;;5049929;28;20075;-51
2023/02/09 12:07:02;;;;;;;23.63;16.92;;;6.80;99.90;;;;;;5054880;28;20103;-52
2023/02/09 12:09:28;;;;;;;27.30;16.92;;;6.80;99.90;;;;;;5053935;28;20115;-55
2023/02/09 12:11:55;;;;;;;33.75;18.65;;;6.80;99.90;;;;;;5055033;28;20081;-54
2023/02/09 12:14:22;;;;;;;26.33;17.63;;;6.90;99.90;;;;;;5054007;28;20106;-53
2023/02/09 12:16:49;;;;;;;28.40;17.13;;;6.90;99.90;;;;;;5054586;28;20045;-52
2023/02/09 12:19:15;;;;;;;27.63;17.42;;;6.90;99.90;;;;;;5054186;28;20106;-55
2023/02/09 12:21:42;;;;;;;23.88;16.45;;;6.90;99.90;;;;;;5054790;28;20103;-52
2023/02/09 12:24:09;;;;;;;23.10;16.60;;;7.00;99.90;;;;;;5054939;28;20383;-54
2023/02/09 12:26:35;;;;;;;27.20;17.48;;;7.00;99.90;;;;;;5052467;28;20045;-50
2023/02/09 12:29:03;;;;;;;25.73;17.50;;;7.00;99.90;;;;;;5054024;28;20095;-55
2023/02/09 12:31:30;;;;;;;23.65;16.70;;;7.10;99.90;;;;;;5054161;28;20041;-51
2023/02/09 12:33:57;;;;;;;28.15;17.30;;;7.20;99.90;;;;;;5053134;28;20436;-56
2023/02/09 12:36:23;;;;;;;26.23;17.33;;;7.30;99.90;;;;;;5054345;28;20049;-54
2023/02/09 12:38:50;;;;;;;23.55;16.50;;;7.30;99.90;;;;;;5051672;28;20076;-56
2023/02/09 12:41:22;;;;;;;25.30;16.98;;;7.40;99.90;;;;;;5054020;28;20037;-53